Santa Maria, CA (93455)

11:10 AM PDT on July 30, 2016 (GMT -0700)
Via Del Carmel | | Change Station

Elev 555 ft 34.86 °N, 120.41 °W | Updated 7 minutes ago

Clear
Clear
81.3 °F
Feels Like 82 °F
N
4.7
Wind Variable Wind from West

Today
High -- | Low -- °F
--% Chance of Precip.
Yesterday
High -- | Low -- °F
Precip. -- in
Pressure 29.89 in
Visibility 8.0 miles
Clouds Clear
Heat Index 82 °F
Dew Point 59 °F
Humidity 47%
Rainfall 0.00 in
Snow Depth Not available.
6:10 AM 8:05 PM
Waning Crescent, 12% visible
METAR KSMX 301751Z VRB05KT 8SM CLR 22/14 A2989 RMK AO2 SLP121 T02170144 10217 20128 50005
Pressure 29.89 in
Visibility 8.0 miles
Clouds Clear
Heat Index 82 °F
Dew Point 59 °F
Humidity 47%
Rainfall 0.00 in
Snow Depth Not available.
6:10 AM 8:05 PM
Waning Crescent, 12% visible
METAR KSMX 301751Z VRB05KT 8SM CLR 22/14 A2989 RMK AO2 SLP121 T02170144 10217 20128 50005

10-Day Weather Forecast

Almanac

Astronomy

Jul. 30, 2016 Rise Set
Actual Time
Civil Twilight
Nautical Twilight
Astronomical Twilight
Moon
Length of Visible Light
Length of Day
Tomorrow will be .
, % of the Moon is Illuminated

Today's Extremes

State Highs State Lows

Community

WunderPhotos

Upload Photos

1,928,600 photos uploaded!

WunderBlog® & News

Nearby

Air Quality

  Air Quality AQ Index Pollutant
Not available.

Snow Depth

Station Depth Elevation

Earthquake Activity

City Distance Mag. Time & Date
Minimum magnitude displayed is 2.5.

Coastal Water Temperatures

Place Temperature

Stations

Nearby Weather Stations

Station Location Temp. Windchill Dew Point Humidity Wind Precip. Elev Updated Type
                   

Watches & Warnings

There are currently no watches in effect.